Time;durP1;ratioP1;P1;durP2;ratioP2;P2;SDS_P1;SDS_P2;PMS_P1;PMS_P2;Temp;Humidity;BMP_temperature;BMP_pressure;BME280_temperature;BME280_humidity;BME280_pressure;Samples;Min_cycle;Max_cycle;Signal;HPM_P1;HPM_P2
2023/01/10 00:02:07;;;;;;;2.78;0.80;;;19.10;55.20;;;;;;6321402;28;20020;-66
2023/01/10 00:05:08;;;;;;;1.40;0.73;;;19.20;55.20;;;;;;6303309;28;20031;-66
2023/01/10 00:08:13;;;;;;;0.98;0.52;;;19.20;55.20;;;;;;6320779;28;20392;-66
2023/01/10 00:14:34;;;;;;;1.35;0.90;;;19.10;55.10;;;;;;6321556;28;20489;-66
2023/01/10 00:17:34;;;;;;;0.90;0.55;;;19.20;55.20;;;;;;6321261;28;20027;-66
2023/01/10 00:20:35;;;;;;;1.15;0.70;;;19.20;55.30;;;;;;6321193;28;20660;-66
2023/01/10 00:23:36;;;;;;;2.28;0.60;;;19.10;55.10;;;;;;6311528;28;20524;-66
2023/01/10 00:26:37;;;;;;;1.08;0.65;;;19.20;55.20;;;;;;6302702;28;20039;-67
2023/01/10 00:29:37;;;;;;;1.05;0.68;;;19.10;55.10;;;;;;6320783;28;20366;-66
2023/01/10 00:32:39;;;;;;;1.23;0.60;;;19.10;55.10;;;;;;6302786;28;20439;-66
2023/01/10 00:35:41;;;;;;;0.85;0.50;;;19.10;55.10;;;;;;6320614;28;20536;-66
2023/01/10 00:38:42;;;;;;;0.47;0.43;;;19.10;55.10;;;;;;6320508;28;20028;-64
2023/01/10 00:45:02;;;;;;;0.88;0.63;;;19.10;55.10;;;;;;6320229;28;20028;-65
2023/01/10 00:48:03;;;;;;;1.13;0.60;;;19.10;55.10;;;;;;6301922;28;20035;-66
2023/01/10 00:51:04;;;;;;;1.05;0.60;;;19.10;55.10;;;;;;6319723;28;20045;-67
2023/01/10 00:54:05;;;;;;;0.70;0.43;;;19.10;55.10;;;;;;6301890;28;20370;-65
2023/01/10 00:57:05;;;;;;;0.80;0.60;;;19.20;55.20;;;;;;6301954;28;20051;-66
2023/01/10 01:00:08;;;;;;;0.50;0.50;;;19.10;55.10;;;;;;6319688;28;20020;-65
2023/01/10 01:03:08;;;;;;;0.73;0.50;;;19.10;55.90;;;;;;6319983;28;20469;-66
2023/01/10 01:06:09;;;;;;;0.68;0.50;;;19.10;55.10;;;;;;6319481;28;20027;-66
2023/01/10 01:09:10;;;;;;;0.88;0.50;;;19.10;55.20;;;;;;6320001;28;20153;-66
2023/01/10 01:12:11;;;;;;;1.10;0.47;;;19.10;55.20;;;;;;6319749;28;20016;-67
2023/01/10 01:15:12;;;;;;;1.10;0.47;;;19.20;55.20;;;;;;6319667;28;20035;-66
2023/01/10 01:18:16;;;;;;;0.70;0.60;;;19.10;55.10;;;;;;6320061;28;20035;-66
2023/01/10 01:21:17;;;;;;;0.82;0.50;;;19.10;55.10;;;;;;6319232;28;20031;-64
2023/01/10 01:24:17;;;;;;;1.17;0.60;;;19.20;55.20;;;;;;6301468;28;20386;-64
2023/01/10 01:27:19;;;;;;;0.65;0.50;;;19.10;55.10;;;;;;6319351;28;20039;-63
2023/01/10 01:30:20;;;;;;;0.80;0.50;;;19.10;55.10;;;;;;6319491;28;20051;-66
2023/01/10 01:33:21;;;;;;;0.82;0.50;;;19.10;55.10;;;;;;6318982;28;20405;-66
2023/01/10 01:36:21;;;;;;;0.50;0.40;;;19.10;55.10;;;;;;6319360;28;20443;-66
2023/01/10 01:39:22;;;;;;;1.17;0.70;;;19.10;55.10;;;;;;6319030;28;20427;-66
2023/01/10 01:42:25;;;;;;;0.57;0.30;;;19.10;55.10;;;;;;6319165;28;20460;-66
2023/01/10 01:45:33;;;;;;;0.65;0.50;;;19.10;55.10;;;;;;6314961;28;20418;-66
2023/01/10 01:48:40;;;;;;;0.68;0.40;;;19.20;55.20;;;;;;6318786;28;20108;-66
2023/01/10 01:51:44;;;;;;;0.80;0.50;;;19.10;55.10;;;;;;6319144;28;20016;-66
2023/01/10 01:54:45;;;;;;;1.05;0.60;;;19.10;55.10;;;;;;6318323;28;20091;-66
2023/01/10 01:57:48;;;;;;;1.52;0.50;;;19.10;55.10;;;;;;6319064;28;20032;-66
2023/01/10 02:00:49;;;;;;;0.77;0.50;;;19.10;55.10;;;;;;6318520;28;20028;-66
2023/01/10 02:03:55;;;;;;;1.20;0.50;;;19.10;55.10;;;;;;6317873;28;20074;-66
2023/01/10 02:06:58;;;;;;;0.63;0.50;;;19.10;55.10;;;;;;6318348;28;20381;-66
2023/01/10 02:10:02;;;;;;;1.27;0.60;;;19.10;55.10;;;;;;6318653;28;20030;-66
2023/01/10 02:13:05;;;;;;;0.70;0.50;;;19.10;55.10;;;;;;6318125;28;20503;-66
2023/01/10 02:16:07;;;;;;;0.98;0.60;;;19.10;55.20;;;;;;6318427;28;20024;-65
2023/01/10 02:19:32;;;;;;;0.55;0.50;;;19.10;55.10;;;;;;6300082;28;20466;-66
2023/01/10 02:22:51;;;;;;;0.95;0.60;;;19.10;55.10;;;;;;6299351;28;20540;-67
2023/01/10 02:26:23;;;;;;;0.63;0.40;;;19.10;55.10;;;;;;6317662;28;20150;-66
2023/01/10 02:29:50;;;;;;;3.33;0.50;;;19.10;55.10;;;;;;6318293;28;20496;-65
2023/01/10 02:33:04;;;;;;;0.57;0.40;;;19.10;55.10;;;;;;6299845;28;20031;-66
2023/01/10 02:36:07;;;;;;;0.85;0.50;;;19.10;55.20;;;;;;6299111;28;20685;-66
2023/01/10 02:39:35;;;;;;;0.43;0.40;;;19.10;55.20;;;;;;6317737;28;20032;-66
2023/01/10 02:43:18;;;;;;;0.90;0.45;;;19.10;55.10;;;;;;6299363;28;20035;-66
2023/01/10 02:46:26;;;;;;;0.75;0.40;;;19.10;55.10;;;;;;6282599;28;20039;-66
2023/01/10 02:49:26;;;;;;;0.60;0.40;;;19.10;55.10;;;;;;6317707;28;20393;-65
2023/01/10 02:52:30;;;;;;;0.70;0.50;;;19.10;55.10;;;;;;6317434;28;20027;-66
2023/01/10 02:55:54;;;;;;;0.93;0.40;;;19.10;55.10;;;;;;6317176;28;20389;-66
2023/01/10 02:59:07;;;;;;;0.45;0.40;;;19.10;55.10;;;;;;6317282;28;20030;-65
2023/01/10 03:02:38;;;;;;;0.52;0.40;;;19.10;55.10;;;;;;6299559;28;20477;-66
2023/01/10 03:06:03;;;;;;;0.73;0.40;;;19.10;55.10;;;;;;6316990;28;20024;-66
2023/01/10 03:09:12;;;;;;;0.65;0.40;;;19.10;55.20;;;;;;6317470;28;20028;-65
2023/01/10 03:12:39;;;;;;;0.75;0.45;;;19.10;55.10;;;;;;6317376;28;20055;-66
2023/01/10 03:15:41;;;;;;;0.60;0.40;;;19.10;55.10;;;;;;6320188;28;20054;-66
2023/01/10 03:18:57;;;;;;;0.22;0.20;;;19.10;55.10;;;;;;6322572;28;20500;-65
2023/01/10 03:22:00;;;;;;;0.38;0.30;;;19.10;55.10;;;;;;6303928;28;20027;-66
2023/01/10 03:25:05;;;;;;;0.47;0.30;;;19.10;55.10;;;;;;6322005;28;20031;-66
2023/01/10 03:28:11;;;;;;;0.50;0.40;;;19.10;55.20;;;;;;6321790;28;20024;-66
2023/01/10 03:31:29;;;;;;;0.52;0.30;;;19.10;55.10;;;;;;6322417;28;20016;-66
2023/01/10 03:34:31;;;;;;;0.47;0.38;;;19.10;55.10;;;;;;6321678;28;20157;-66
2023/01/10 03:37:55;;;;;;;0.73;0.38;;;19.10;55.10;;;;;;6322292;28;20046;-66
2023/01/10 03:41:05;;;;;;;0.63;0.43;;;19.10;55.10;;;;;;6322160;28;20731;-67
2023/01/10 03:44:43;;;;;;;0.60;0.50;;;19.10;55.10;;;;;;6321834;28;20024;-66
2023/01/10 03:47:47;;;;;;;0.45;0.30;;;19.10;55.10;;;;;;6296692;28;20029;-66
2023/01/10 03:50:50;;;;;;;0.40;0.35;;;19.10;55.10;;;;;;6296891;28;20108;-65
2023/01/10 03:53:50;;;;;;;0.73;0.40;;;19.10;55.10;;;;;;6297455;28;20016;-66
2023/01/10 03:56:51;;;;;;;0.52;0.40;;;19.10;55.10;;;;;;6279714;28;20020;-66
2023/01/10 03:59:56;;;;;;;0.50;0.30;;;19.10;55.70;;;;;;6279361;28;20024;-65
2023/01/10 04:02:58;;;;;;;0.28;0.22;;;19.10;55.10;;;;;;6297276;28;20107;-66
2023/01/10 04:05:58;;;;;;;0.70;0.43;;;19.10;55.10;;;;;;6296955;28;20023;-65
2023/01/10 04:08:59;;;;;;;0.38;0.20;;;19.10;55.10;;;;;;6297429;28;20043;-65
2023/01/10 04:11:59;;;;;;;0.55;0.43;;;19.10;55.10;;;;;;6296665;28;20114;-66
2023/01/10 04:15:01;;;;;;;0.75;0.40;;;19.10;55.10;;;;;;6321906;28;20027;-66
2023/01/10 04:18:02;;;;;;;0.40;0.20;;;19.20;55.20;;;;;;6321909;28;20016;-65
2023/01/10 04:21:03;;;;;;;0.82;0.47;;;19.10;55.10;;;;;;6322108;28;20482;-66
2023/01/10 04:24:04;;;;;;;0.70;0.40;;;19.10;55.10;;;;;;6321916;28;20051;-66
2023/01/10 04:27:05;;;;;;;0.28;0.20;;;19.10;55.10;;;;;;6321024;28;20498;-65
2023/01/10 04:30:07;;;;;;;0.60;0.40;;;19.10;55.10;;;;;;6322176;28;20030;-66
2023/01/10 04:33:09;;;;;;;0.73;0.30;;;19.10;55.10;;;;;;6321712;28;20016;-66
2023/01/10 04:36:09;;;;;;;0.22;0.20;;;19.10;55.10;;;;;;6321743;28;20027;-66
2023/01/10 04:39:11;;;;;;;0.20;0.20;;;19.10;55.10;;;;;;6321428;28;20024;-65
2023/01/10 04:42:12;;;;;;;0.63;0.35;;;19.10;55.10;;;;;;6303591;28;20476;-66
2023/01/10 04:45:16;;;;;;;0.38;0.30;;;19.10;55.10;;;;;;6321554;28;20028;-66
2023/01/10 04:48:17;;;;;;;0.50;0.32;;;19.10;55.10;;;;;;6321358;28;20159;-65
2023/01/10 04:51:18;;;;;;;0.63;0.32;;;19.10;55.10;;;;;;6320966;28;20146;-66
2023/01/10 04:54:22;;;;;;;0.47;0.30;;;19.10;55.10;;;;;;6321378;28;20487;-66
2023/01/10 04:57:22;;;;;;;0.93;0.40;;;19.10;55.10;;;;;;6302984;28;20032;-65
2023/01/10 05:00:32;;;;;;;0.50;0.30;;;19.10;55.10;;;;;;6321462;28;20107;-66
2023/01/10 05:03:33;;;;;;;0.30;0.30;;;19.20;55.10;;;;;;6302978;28;20032;-65
2023/01/10 05:06:34;;;;;;;0.65;0.35;;;19.10;55.10;;;;;;6321155;28;20023;-65
2023/01/10 05:09:35;;;;;;;0.88;0.40;;;19.10;55.10;;;;;;6321193;28;20487;-66
2023/01/10 05:12:35;;;;;;;0.20;0.20;;;19.10;55.10;;;;;;6320904;28;20020;-67
2023/01/10 05:15:36;;;;;;;0.40;0.28;;;19.10;55.10;;;;;;6320810;28;20098;-66
2023/01/10 05:18:37;;;;;;;0.88;0.32;;;19.10;55.10;;;;;;6320282;28;20100;-67
2023/01/10 05:21:37;;;;;;;0.55;0.30;;;19.10;55.10;;;;;;6303164;28;20020;-66
2023/01/10 05:24:38;;;;;;;0.65;0.40;;;19.20;55.10;;;;;;6320593;28;20036;-66
2023/01/10 05:27:41;;;;;;;1.35;0.38;;;19.10;55.10;;;;;;6302259;28;20039;-66
2023/01/10 05:30:41;;;;;;;0.47;0.30;;;19.10;55.10;;;;;;6302212;28;20089;-65
2023/01/10 05:33:46;;;;;;;0.63;0.32;;;19.10;55.10;;;;;;6320863;28;20020;-66
2023/01/10 05:36:47;;;;;;;;;;;19.10;55.10;;;;;;6320681;28;20024;-66
2023/01/10 05:39:48;;;;;;;1.05;0.47;;;19.10;55.10;;;;;;6319255;28;20009;-65
2023/01/10 05:42:48;;;;;;;0.60;0.30;;;19.10;55.10;;;;;;6320398;28;20028;-66
2023/01/10 05:45:49;;;;;;;0.35;0.30;;;19.10;55.10;;;;;;6302030;28;20418;-66
2023/01/10 05:48:51;;;;;;;0.98;0.40;;;19.10;55.10;;;;;;6319954;28;20030;-66
2023/01/10 05:51:52;;;;;;;0.38;0.30;;;19.10;55.10;;;;;;6319921;28;20028;-66
2023/01/10 05:54:53;;;;;;;0.80;0.30;;;19.10;55.10;;;;;;6319670;28;20097;-64
2023/01/10 05:57:53;;;;;;;0.50;0.40;;;19.10;55.10;;;;;;6301675;28;20032;-66
2023/01/10 06:00:56;;;;;;;0.93;0.40;;;19.10;55.10;;;;;;6319523;28;20055;-65
2023/01/10 06:03:56;;;;;;;1.48;0.40;;;19.10;55.10;;;;;;6319852;28;20099;-66
2023/01/10 06:06:57;;;;;;;0.45;0.20;;;19.10;55.10;;;;;;6319511;28;20489;-66
2023/01/10 06:09:58;;;;;;;0.43;0.30;;;19.10;55.10;;;;;;6319715;28;20023;-64
2023/01/10 06:12:59;;;;;;;0.40;0.30;;;19.10;55.10;;;;;;6319701;28;20071;-62
2023/01/10 06:15:59;;;;;;;0.95;0.40;;;19.10;55.10;;;;;;6319610;28;20034;-66
2023/01/10 06:19:00;;;;;;;0.40;0.32;;;19.10;55.10;;;;;;6300979;28;20020;-65
2023/01/10 06:22:02;;;;;;;0.75;0.40;;;19.10;55.10;;;;;;6300708;28;20577;-66
2023/01/10 06:25:03;;;;;;;1.33;0.40;;;19.10;55.10;;;;;;6318709;28;20077;-66
2023/01/10 06:28:04;;;;;;;0.75;0.30;;;19.10;55.10;;;;;;6319283;28;20476;-66
2023/01/10 06:31:04;;;;;;;1.90;0.60;;;19.10;55.10;;;;;;6318757;28;20032;-66
2023/01/10 06:34:05;;;;;;;1.27;0.70;;;19.10;55.10;;;;;;6301029;28;20377;-66
2023/01/10 06:37:07;;;;;;;0.95;0.43;;;19.10;55.10;;;;;;6318755;28;20473;-65
2023/01/10 06:40:08;;;;;;;0.45;0.30;;;19.10;55.10;;;;;;6318757;28;20023;-65
2023/01/10 06:43:09;;;;;;;0.80;0.40;;;19.10;55.10;;;;;;6318546;28;20042;-65
2023/01/10 06:46:11;;;;;;;0.95;0.30;;;19.10;55.10;;;;;;6318594;28;20095;-66
2023/01/10 06:49:11;;;;;;;0.65;0.35;;;19.10;55.10;;;;;;6318124;28;20028;-66
2023/01/10 06:52:12;;;;;;;0.65;0.30;;;19.10;55.10;;;;;;6318449;28;20384;-66
2023/01/10 06:55:13;;;;;;;1.33;0.52;;;19.10;55.10;;;;;;6318747;28;20024;-66
2023/01/10 06:58:17;;;;;;;0.80;0.47;;;19.10;55.10;;;;;;6300463;28;20028;-65
2023/01/10 07:01:20;;;;;;;0.52;0.30;;;19.10;55.10;;;;;;6321038;28;20032;-66
2023/01/10 07:04:20;;;;;;;0.82;0.40;;;19.10;55.10;;;;;;6320671;28;20108;-65
2023/01/10 07:07:21;;;;;;;0.40;0.40;;;19.10;55.10;;;;;;6302576;28;20024;-67
2023/01/10 07:10:21;;;;;;;0.60;0.50;;;19.10;55.10;;;;;;6320732;28;20393;-65
2023/01/10 07:13:22;;;;;;;0.55;0.32;;;19.10;55.10;;;;;;6320729;28;20029;-66
2023/01/10 07:16:23;;;;;;;0.52;0.28;;;19.10;55.10;;;;;;6320439;28;20052;-66
2023/01/10 07:19:24;;;;;;;1.10;0.30;;;19.10;55.10;;;;;;6320688;28;20473;-66
2023/01/10 07:22:24;;;;;;;0.90;0.38;;;19.10;55.10;;;;;;6302335;28;20492;-66
2023/01/10 07:25:27;;;;;;;1.95;0.50;;;19.10;55.10;;;;;;6320560;28;20441;-66
2023/01/10 07:28:28;;;;;;;0.80;0.32;;;19.10;55.10;;;;;;6320244;28;20019;-66
2023/01/10 07:31:29;;;;;;;0.95;0.30;;;19.10;55.10;;;;;;6302170;28;20405;-64
2023/01/10 07:34:29;;;;;;;1.50;0.60;;;19.10;55.10;;;;;;6320292;28;20031;-64
2023/01/10 07:37:30;;;;;;;0.75;0.32;;;19.10;55.10;;;;;;6320638;28;20070;-65
2023/01/10 07:40:31;;;;;;;0.60;0.40;;;19.10;55.10;;;;;;6320054;28;20038;-64
2023/01/10 07:43:32;;;;;;;0.80;0.40;;;19.20;55.10;;;;;;6320289;28;20056;-66
2023/01/10 07:46:32;;;;;;;0.80;0.40;;;19.10;55.10;;;;;;6319749;28;20042;-66
2023/01/10 07:49:33;;;;;;;0.32;0.30;;;19.10;55.10;;;;;;6320770;28;20020;-64
2023/01/10 07:52:34;;;;;;;1.35;0.40;;;19.10;55.10;;;;;;6315710;28;20123;-64
2023/01/10 07:55:37;;;;;;;1.02;0.50;;;19.10;55.10;;;;;;6333203;28;20059;-65
2023/01/10 07:58:38;;;;;;;0.93;0.40;;;19.10;55.10;;;;;;6343667;28;20042;-67
2023/01/10 08:01:39;;;;;;;1.13;0.40;;;19.10;55.10;;;;;;6321510;28;20381;-67
2023/01/10 08:04:39;;;;;;;1.50;0.40;;;19.10;55.10;;;;;;6325448;28;20063;-67
2023/01/10 08:07:40;;;;;;;2.40;0.40;;;19.10;55.10;;;;;;6350029;28;20015;-65
2023/01/10 08:10:40;;;;;;;0.85;0.57;;;19.10;54.90;;;;;;6346006;28;20016;-63
2023/01/10 08:13:41;;;;;;;1.23;0.47;;;19.10;55.10;;;;;;6306113;28;20028;-64
2023/01/10 08:16:42;;;;;;;2.15;0.40;;;19.20;55.20;;;;;;6324041;28;20696;-64
2023/01/10 08:19:43;;;;;;;2.05;0.60;;;19.20;55.10;;;;;;6324139;28;20028;-64
2023/01/10 08:22:43;;;;;;;1.60;0.60;;;19.20;55.10;;;;;;6323493;28;20063;-65
2023/01/10 08:25:45;;;;;;;0.80;0.40;;;19.20;55.20;;;;;;6318460;28;20020;-65
2023/01/10 08:28:46;;;;;;;0.52;0.30;;;19.20;55.20;;;;;;6305224;28;20016;-65
2023/01/10 08:31:47;;;;;;;2.28;0.55;;;19.20;55.20;;;;;;6339063;28;20503;-64
2023/01/10 08:34:47;;;;;;;0.85;0.35;;;19.20;55.10;;;;;;6326414;28;20020;-65
2023/01/10 08:37:48;;;;;;;1.83;0.52;;;19.20;55.20;;;;;;6323511;28;20444;-65
2023/01/10 08:40:49;;;;;;;3.45;0.50;;;19.20;55.20;;;;;;6327825;28;20027;-66
2023/01/10 08:43:50;;;;;;;0.52;0.40;;;19.20;55.10;;;;;;6348909;28;20425;-67
2023/01/10 08:46:50;;;;;;;0.47;0.32;;;19.10;55.10;;;;;;6334625;28;20024;-66
2023/01/10 08:49:51;;;;;;;0.73;0.50;;;19.20;55.20;;;;;;6318312;28;20600;-67
2023/01/10 08:52:52;;;;;;;2.58;0.52;;;19.20;55.20;;;;;;6344827;28;20520;-67
2023/01/10 08:55:52;;;;;;;0.98;0.40;;;19.20;55.30;;;;;;6348303;28;20110;-65
2023/01/10 08:58:53;;;;;;;1.02;0.50;;;19.20;55.30;;;;;;6348011;28;20023;-65
2023/01/10 09:01:57;;;;;;;4.55;0.60;;;19.10;55.30;;;;;;6311805;28;20040;-64
2023/01/10 09:04:57;;;;;;;4.38;0.57;;;19.20;55.50;;;;;;6323559;28;20073;-64
2023/01/10 09:08:02;;;;;;;8.73;2.47;;;19.10;55.40;;;;;;6322441;28;20020;-66
2023/01/10 09:11:04;;;;;;;8.77;3.83;;;19.10;54.40;;;;;;6326608;28;20019;-65
2023/01/10 09:14:06;;;;;;;11.07;3.35;;;19.10;53.40;;;;;;6347768;28;20471;-66
2023/01/10 09:17:07;;;;;;;7.15;2.47;;;19.10;53.60;;;;;;6348451;28;20493;-65
2023/01/10 09:20:09;;;;;;;5.50;2.25;;;19.10;53.90;;;;;;6348496;28;20023;-65
2023/01/10 09:23:17;;;;;;;8.90;2.42;;;19.10;54.20;;;;;;6347962;28;20047;-65
2023/01/10 09:26:18;;;;;;;6.47;2.55;;;19.10;54.40;;;;;;6326038;28;20598;-66
2023/01/10 09:29:19;;;;;;;8.65;2.78;;;19.10;54.50;;;;;;6322721;28;20036;-65
2023/01/10 09:32:19;;;;;;;6.75;2.67;;;19.10;54.30;;;;;;6322531;28;20024;-65
2023/01/10 09:35:21;;;;;;;12.07;2.67;;;19.10;54.60;;;;;;6322813;28;20020;-64
2023/01/10 09:38:21;;;;;;;8.98;3.00;;;19.10;54.60;;;;;;6322262;28;20469;-65
2023/01/10 09:41:54;;;;;;;8.55;3.00;;;19.10;54.60;;;;;;6304327;28;20024;-67
2023/01/10 09:45:12;;;;;;;9.60;2.38;;;19.20;54.70;;;;;;6322394;28;20023;-65
2023/01/10 09:48:47;;;;;;;6.57;2.58;;;19.20;54.70;;;;;;6312656;28;20074;-65
2023/01/10 09:51:50;;;;;;;7.40;2.38;;;19.20;54.70;;;;;;6270268;28;20116;-65
2023/01/10 09:54:54;;;;;;;4.57;2.40;;;19.20;54.70;;;;;;6347320;28;20350;-65
2023/01/10 09:57:58;;;;;;;5.68;2.45;;;19.20;54.70;;;;;;6334189;28;20063;-65
2023/01/10 10:01:37;;;;;;;7.63;1.85;;;19.10;54.50;;;;;;6347165;28;20215;-65
2023/01/10 10:04:40;;;;;;;4.18;1.95;;;19.10;54.50;;;;;;6220609;28;20104;-62
2023/01/10 10:07:41;;;;;;;7.45;2.40;;;19.20;54.80;;;;;;6306456;28;20048;-64
2023/01/10 10:10:54;;;;;;;7.60;2.80;;;19.10;54.90;;;;;;6321791;28;20028;-65
2023/01/10 10:14:00;;;;;;;4.60;2.15;;;19.10;54.40;;;;;;6340957;28;20030;-65
2023/01/10 10:17:16;;;;;;;14.23;3.42;;;19.10;53.60;;;;;;6346926;28;20372;-65
2023/01/10 10:20:35;;;;;;;;;;;19.10;52.70;;;;;;6328979;28;20472;-65
2023/01/10 10:24:04;;;;;;;7.45;2.35;;;19.10;53.10;;;;;;6344744;28;19912;-66
2023/01/10 10:27:28;;;;;;;5.82;2.20;;;19.10;53.40;;;;;;6321153;28;20032;-64
2023/01/10 10:30:36;;;;;;;5.65;1.98;;;19.10;53.60;;;;;;6296398;28;20023;-68
2023/01/10 10:33:39;;;;;;;3.70;1.85;;;19.10;53.70;;;;;;6318727;28;20081;-65
2023/01/10 10:36:40;;;;;;;6.50;1.73;;;19.10;53.80;;;;;;6346725;28;20027;-65
2023/01/10 10:39:48;;;;;;;4.80;2.03;;;19.10;54.00;;;;;;6292675;28;20055;-63
2023/01/10 10:42:52;;;;;;;6.15;1.73;;;19.10;54.10;;;;;;6318377;28;20031;-65
2023/01/10 10:46:07;;;;;;;4.65;2.00;;;19.10;54.10;;;;;;6320982;28;20074;-68
2023/01/10 10:49:21;;;;;;;4.55;1.88;;;19.10;54.20;;;;;;6322338;28;20024;-67
2023/01/10 10:52:25;;;;;;;4.70;1.70;;;19.10;54.10;;;;;;6320931;28;20024;-68
2023/01/10 10:55:33;;;;;;;4.83;1.80;;;19.10;54.10;;;;;;6320736;28;20077;-65
2023/01/10 10:58:33;;;;;;;4.90;1.60;;;19.20;54.10;;;;;;6320092;28;20790;-68
2023/01/10 11:01:34;;;;;;;4.72;1.42;;;19.20;54.10;;;;;;6315077;28;20036;-64
2023/01/10 11:04:35;;;;;;;5.43;1.90;;;19.20;54.10;;;;;;6330739;28;20024;-66
2023/01/10 11:07:36;;;;;;;5.38;1.50;;;19.20;54.00;;;;;;6339668;28;20062;-65
2023/01/10 11:10:38;;;;;;;4.25;1.65;;;19.20;53.90;;;;;;6319009;28;20028;-65
2023/01/10 11:13:46;;;;;;;9.25;1.83;;;19.30;53.90;;;;;;6310215;28;20030;-65
2023/01/10 11:16:47;;;;;;;2.88;1.50;;;19.30;54.00;;;;;;6320471;28;20024;-65
2023/01/10 11:19:59;;;;;;;3.95;1.33;;;19.30;54.00;;;;;;6319403;28;20032;-65
2023/01/10 11:23:00;;;;;;;5.47;1.13;;;19.30;53.90;;;;;;6319801;28;20036;-65
2023/01/10 11:26:01;;;;;;;3.97;1.52;;;19.40;53.90;;;;;;6294932;28;20036;-65
2023/01/10 11:29:22;;;;;;;4.20;1.58;;;19.30;53.80;;;;;;6295447;28;20055;-66
2023/01/10 11:32:33;;;;;;;1.77;1.13;;;19.30;53.70;;;;;;6277162;28;20017;-65
2023/01/10 11:35:37;;;;;;;3.67;1.30;;;19.30;53.80;;;;;;6295676;28;20489;-66
2023/01/10 11:38:38;;;;;;;3.15;1.20;;;19.40;53.80;;;;;;6284832;28;20025;-68
2023/01/10 11:41:38;;;;;;;4.45;1.40;;;19.30;53.80;;;;;;6299086;28;20070;-70
2023/01/10 11:44:39;;;;;;;2.78;1.40;;;19.30;53.80;;;;;;6299882;28;20469;-65
2023/01/10 11:47:43;;;;;;;2.85;1.55;;;19.30;53.90;;;;;;6291273;28;20054;-64
2023/01/10 11:50:49;;;;;;;5.65;1.30;;;19.30;53.80;;;;;;6318416;28;20107;-64
2023/01/10 11:54:00;;;;;;;3.45;1.33;;;19.30;53.80;;;;;;6320779;28;20016;-65
2023/01/10 11:57:13;;;;;;;3.05;1.25;;;19.30;53.90;;;;;;6298750;28;20032;-64
2023/01/10 12:00:15;;;;;;;4.50;1.05;;;19.30;53.80;;;;;;6288359;28;20028;-65
2023/01/10 12:03:27;;;;;;;4.15;1.80;;;19.30;53.90;;;;;;6298778;28;20052;-65
2023/01/10 12:06:28;;;;;;;2.67;1.20;;;19.30;53.90;;;;;;6308378;28;20031;-65
2023/01/10 12:09:31;;;;;;;2.83;1.20;;;19.30;54.10;;;;;;6317285;28;20020;-64
2023/01/10 12:12:34;;;;;;;4.00;1.15;;;19.30;54.10;;;;;;6298721;28;20461;-64
2023/01/10 12:15:35;;;;;;;2.58;1.20;;;19.30;54.20;;;;;;6297919;28;20075;-64
2023/01/10 12:18:36;;;;;;;2.70;1.13;;;19.30;54.30;;;;;;6298631;28;20370;-65
2023/01/10 12:21:38;;;;;;;6.63;1.33;;;19.30;54.30;;;;;;6271861;28;20151;-64
2023/01/10 12:24:42;;;;;;;3.55;1.40;;;19.30;54.40;;;;;;6302495;28;20040;-65
2023/01/10 12:27:48;;;;;;;3.97;0.98;;;19.30;54.40;;;;;;6304484;28;20031;-66
2023/01/10 12:30:52;;;;;;;3.47;1.75;;;19.30;54.40;;;;;;6323848;28;20099;-65
2023/01/10 12:33:58;;;;;;;3.42;1.15;;;19.40;54.50;;;;;;6323288;28;20086;-68
2023/01/10 12:37:30;;;;;;;2.63;1.05;;;19.40;54.50;;;;;;6321816;28;20031;-68
2023/01/10 12:40:46;;;;;;;3.30;1.20;;;19.30;54.50;;;;;;6317171;28;20095;-68
2023/01/10 12:47:21;;;;;;;4.88;1.48;;;19.40;54.60;;;;;;6320434;28;20020;-70
2023/01/10 12:50:31;;;;;;;3.28;1.33;;;19.30;54.60;;;;;;6321078;28;20060;-68
2023/01/10 12:53:43;;;;;;;3.28;1.20;;;19.30;54.60;;;;;;6321043;28;20020;-68
2023/01/10 12:56:45;;;;;;;7.72;1.00;;;19.30;54.70;;;;;;6319735;28;20055;-68
2023/01/10 12:59:47;;;;;;;2.13;1.05;;;19.30;54.70;;;;;;6322890;28;20082;-68
2023/01/10 13:02:51;;;;;;;2.22;0.98;;;19.30;54.70;;;;;;6346634;28;20034;-68
2023/01/10 13:05:53;;;;;;;6.93;1.23;;;19.30;54.70;;;;;;6327012;28;20035;-68
2023/01/10 13:08:56;;;;;;;2.97;0.85;;;19.30;54.90;;;;;;6321538;28;20384;-68
2023/01/10 13:12:15;;;;;;;2.25;1.10;;;19.30;54.90;;;;;;6320630;28;20518;-68
2023/01/10 13:15:29;;;;;;;2.65;0.98;;;19.30;55.00;;;;;;6320102;28;20016;-68
2023/01/10 13:18:30;;;;;;;1.92;1.10;;;19.30;55.60;;;;;;6321380;28;20024;-69
2023/01/10 13:21:33;;;;;;;1.80;1.02;;;19.30;54.90;;;;;;6321070;28;20071;-68
2023/01/10 13:24:33;;;;;;;1.60;0.88;;;19.30;55.00;;;;;;6314727;28;21034;-71
2023/01/10 13:27:34;;;;;;;1.60;0.88;;;19.30;55.00;;;;;;6295041;28;20123;-68
2023/01/10 13:30:40;;;;;;;1.95;0.80;;;19.30;55.00;;;;;;6295246;28;20020;-67
2023/01/10 13:34:06;;;;;;;1.63;0.95;;;19.30;55.00;;;;;;6294815;28;20086;-68
2023/01/10 13:37:17;;;;;;;1.90;0.93;;;19.30;55.00;;;;;;6294969;28;20036;-68
2023/01/10 13:40:29;;;;;;;1.70;1.00;;;19.30;55.00;;;;;;6275756;28;20028;-70
2023/01/10 13:43:35;;;;;;;2.47;1.00;;;19.30;55.00;;;;;;6298760;28;20508;-68
2023/01/10 13:46:41;;;;;;;1.98;1.08;;;19.30;55.10;;;;;;6301629;28;20029;-68
2023/01/10 13:49:43;;;;;;;1.73;0.98;;;19.30;55.00;;;;;;6295244;28;20020;-68
2023/01/10 13:52:44;;;;;;;2.28;1.00;;;19.30;55.00;;;;;;6294782;28;20047;-68
2023/01/10 13:55:52;;;;;;;1.20;0.80;;;19.30;55.00;;;;;;6294384;28;20048;-68
2023/01/10 14:02:28;;;;;;;2.65;0.73;;;19.30;55.10;;;;;;6270766;28;20043;-71
2023/01/10 14:05:29;;;;;;;1.42;0.90;;;19.30;55.00;;;;;;6293015;28;20074;-68
2023/01/10 14:08:31;;;;;;;1.40;0.80;;;19.30;55.10;;;;;;6291401;28;20033;-68
2023/01/10 14:11:53;;;;;;;1.83;0.85;;;19.30;55.10;;;;;;6286689;28;20053;-68
2023/01/10 14:15:23;;;;;;;1.60;0.77;;;19.30;55.10;;;;;;6264581;28;20029;-68
2023/01/10 14:18:31;;;;;;;2.45;0.88;;;19.30;55.10;;;;;;6308227;28;20416;-70
2023/01/10 14:21:40;;;;;;;2.90;1.02;;;19.30;55.10;;;;;;6310881;28;20063;-70
2023/01/10 14:24:49;;;;;;;3.20;0.90;;;19.30;55.10;;;;;;6313652;28;20047;-71
2023/01/10 14:27:51;;;;;;;1.15;0.68;;;19.30;55.20;;;;;;6327318;28;20027;-66
2023/01/10 14:31:02;;;;;;;2.38;0.98;;;19.30;55.20;;;;;;6320283;28;20070;-66
2023/01/10 14:34:08;;;;;;;1.17;0.60;;;19.30;55.20;;;;;;6339262;28;20074;-66
2023/01/10 14:37:28;;;;;;;1.65;0.82;;;19.30;55.30;;;;;;6323217;28;20491;-66
2023/01/10 14:40:33;;;;;;;1.70;0.80;;;19.30;55.30;;;;;;6329549;28;20024;-66
2023/01/10 14:44:05;;;;;;;2.15;0.80;;;19.30;55.30;;;;;;6328382;28;20020;-66
2023/01/10 14:47:26;;;;;;;1.30;0.70;;;19.30;55.30;;;;;;6291064;28;20047;-66
2023/01/10 14:50:31;;;;;;;1.17;0.70;;;19.30;55.30;;;;;;6320080;28;20020;-66
2023/01/10 14:53:32;;;;;;;2.38;0.60;;;19.30;55.30;;;;;;6332285;28;20020;-66
2023/01/10 14:56:44;;;;;;;1.10;0.65;;;19.30;55.30;;;;;;6336817;28;20063;-66
2023/01/10 14:59:45;;;;;;;2.22;1.10;;;19.30;55.40;;;;;;6296682;28;20571;-66
2023/01/10 15:02:47;;;;;;;1.30;0.80;;;19.20;55.20;;;;;;6308359;28;20036;-65
2023/01/10 15:05:55;;;;;;;1.50;0.70;;;19.30;55.30;;;;;;6333763;28;20032;-66
2023/01/10 15:08:58;;;;;;;2.38;0.80;;;19.30;55.40;;;;;;6326684;28;20507;-66
2023/01/10 15:12:02;;;;;;;1.27;0.65;;;19.30;55.40;;;;;;6321098;28;20035;-67
2023/01/10 15:15:10;;;;;;;2.35;0.85;;;19.30;55.40;;;;;;6349348;28;20033;-66
2023/01/10 15:18:35;;;;;;;2.67;1.08;;;19.30;55.50;;;;;;6346788;28;20028;-66
2023/01/10 15:21:42;;;;;;;1.58;0.75;;;19.30;55.40;;;;;;6328182;28;20030;-67
2023/01/10 15:24:42;;;;;;;2.28;1.02;;;19.30;55.30;;;;;;6327091;28;20696;-67
2023/01/10 15:27:48;;;;;;;1.15;0.82;;;19.30;55.30;;;;;;6327835;28;20028;-66
2023/01/10 15:30:49;;;;;;;8.80;1.10;;;19.30;55.30;;;;;;6307015;28;20115;-66
2023/01/10 15:33:55;;;;;;;1.67;0.98;;;19.30;55.30;;;;;;6304307;28;20031;-66
2023/01/10 15:36:59;;;;;;;4.35;0.98;;;19.30;55.30;;;;;;6353051;28;20020;-66
2023/01/10 15:40:02;;;;;;;2.10;1.08;;;19.30;55.30;;;;;;6338898;28;20035;-66
2023/01/10 15:43:25;;;;;;;2.22;1.00;;;19.30;55.30;;;;;;6327418;28;20023;-66
2023/01/10 15:46:26;;;;;;;5.80;0.85;;;19.30;55.40;;;;;;6320841;28;20020;-66
2023/01/10 15:49:27;;;;;;;3.35;1.08;;;19.30;55.40;;;;;;6333689;28;20028;-66
2023/01/10 15:52:28;;;;;;;5.65;1.13;;;19.30;55.40;;;;;;6324210;28;20020;-66
2023/01/10 15:56:07;;;;;;;5.45;1.00;;;19.30;55.40;;;;;;6337308;28;20099;-66
2023/01/10 15:59:45;;;;;;;4.63;0.98;;;19.30;55.40;;;;;;6332359;28;20032;-66
2023/01/10 16:02:46;;;;;;;2.10;0.90;;;19.30;55.40;;;;;;6327517;28;20477;-67
2023/01/10 16:05:53;;;;;;;3.80;0.90;;;19.30;55.40;;;;;;6326574;28;20043;-66
2023/01/10 16:08:57;;;;;;;1.38;0.85;;;19.30;55.50;;;;;;6327617;28;20027;-66
2023/01/10 16:15:20;;;;;;;2.30;0.90;;;19.30;55.50;;;;;;6344474;28;20476;-66
2023/01/10 16:18:22;;;;;;;1.48;0.85;;;19.30;55.50;;;;;;6352111;28;20053;-66
2023/01/10 16:21:26;;;;;;;2.28;1.00;;;19.30;55.50;;;;;;6346992;28;20039;-66
2023/01/10 16:24:35;;;;;;;2.25;1.02;;;19.30;55.50;;;;;;6306694;28;20048;-66